Guarulhos, Brazil
Current Conditions -  °F | °C
As of 4:00 AM on Monday 22 Dec 2014 (Local Time) from SBGR Reporting Station
Broken Clouds Broken Clouds  
Wind Chill: 73°   Ceiling: 1900
Heat Index: 73°   Visibility: 6mi
Dew Point: 70°   Wind: 8mph
Humidity: 88%   Direction: 330°NNW
Pressure: 29.94"   Gusts: NA
Location:  23.46°S, 46.49°W
Report Text: SBGR 220600Z 33007KT 9999 BKN019 23/21 Q1014
Loading
Personal Weather Stations






























Interactive Weather Map New forecast layout! Learn more

10-Day Weather Forecast

Advertisements
Track Severe Weather on mobile